Time;durP1;ratioP1;P1;durP2;ratioP2;P2;SDS_P1;SDS_P2;PMS_P1;PMS_P2;Temp;Humidity;BMP_temperature;BMP_pressure;BME280_temperature;BME280_humidity;BME280_pressure;Samples;Min_cycle;Max_cycle;Signal;HPM_P1;HPM_P2
2021/03/01 00:00:22;;;;;;;;;;;;;;;-1.26;100.00;97764.44;5036382;28;19956;-48
2021/03/01 00:02:50;;;;;;;;;;;;;;;-1.41;100.00;97773.47;5018302;28;19933;-46
2021/03/01 00:05:17;;;;;;;;;;;;;;;-1.50;100.00;97778.84;5034477;28;19925;-50
2021/03/01 00:07:44;;;;;;;;;;;;;;;-1.50;100.00;97774.53;5016257;28;19959;-47
2021/03/01 00:10:11;;;;;;;;;;;;;;;-1.52;100.00;97778.03;5037250;28;19935;-46
2021/03/01 00:12:38;;;;;;;;;;;;;;;-1.46;100.00;97777.88;5007392;28;19952;-46
2021/03/01 00:15:05;;;;;;;;;;;;;;;-1.35;100.00;97778.44;5037384;28;19947;-49
2021/03/01 00:17:32;;;;;;;;;;;;;;;-1.27;100.00;97781.72;5012278;28;20024;-49
2021/03/01 00:20:00;;;;;;;;;;;;;;;-1.26;100.00;97778.22;5040869;28;19925;-48
2021/03/01 00:22:27;;;;;;;;;;;;;;;-1.23;100.00;97779.88;5018728;28;19979;-47
2021/03/01 00:24:53;;;;;;;;;;;;;;;-1.49;100.00;97776.22;5031811;28;20311;-47
2021/03/01 00:27:20;;;;;;;;;;;;;;;-1.44;100.00;97778.69;5026135;28;19933;-47
2021/03/01 00:29:47;;;;;;;;;;;;;;;-1.49;100.00;97777.94;4998195;28;19929;-48
2021/03/01 00:32:13;;;;;;;;;;;;;;;-1.63;100.00;97782.63;5026839;28;19940;-47
2021/03/01 00:34:40;;;;;;;;;;;;;;;-1.57;100.00;97779.88;5022227;28;19951;-47
2021/03/01 00:37:08;;;;;;;;;;;;;;;-1.60;100.00;97780.81;5042500;28;19925;-49
2021/03/01 00:39:35;;;;;;;;;;;;;;;-1.60;100.00;97782.53;5017900;28;19925;-48
2021/03/01 00:42:02;;;;;;;;;;;;;;;-1.46;100.00;97783.91;5029854;28;19936;-48
2021/03/01 00:44:28;;;;;;;;;;;;;;;-1.33;100.00;97786.19;5023194;28;20403;-52
2021/03/01 00:46:55;;;;;;;;;;;;;;;-1.21;100.00;97775.50;5039608;28;19932;-46
2021/03/01 00:49:22;;;;;;;;;;;;;;;-1.00;100.00;97779.25;5020070;28;20379;-50
2021/03/01 00:51:49;;;;;;;;;;;;;;;-0.88;100.00;97772.91;5037685;28;20318;-50
2021/03/01 00:54:20;;;;;;;;;;;;;;;-0.69;100.00;97773.25;5013743;28;20451;-47
2021/03/01 00:56:50;;;;;;;;;;;;;;;-0.43;100.00;97772.50;5041232;28;20075;-47
2021/03/01 00:59:18;;;;;;;;;;;;;;;-0.52;100.00;97768.44;5019541;28;19925;-47
2021/03/01 01:01:57;;;;;;;;;;;;;;;-0.62;100.00;97772.16;5042469;28;20035;-48
2021/03/01 01:04:24;;;;;;;;;;;;;;;-0.72;100.00;97774.19;5027996;28;19925;-47
2021/03/01 01:06:51;;;;;;;;;;;;;;;-0.78;100.00;97775.22;5043040;28;19936;-47
2021/03/01 01:09:18;;;;;;;;;;;;;;;-0.73;100.00;97773.31;5007448;28;20357;-46
2021/03/01 01:11:46;;;;;;;;;;;;;;;-0.49;100.00;97771.78;5019322;28;20534;-47
2021/03/01 01:14:12;;;;;;;;;;;;;;;-0.35;100.00;97775.72;5019937;28;20379;-47
2021/03/01 01:16:39;;;;;;;;;;;;;;;-0.35;100.00;97770.53;5011407;28;19961;-46
2021/03/01 01:19:06;;;;;;;;;;;;;;;-0.44;100.00;97769.06;5041279;28;20354;-49
2021/03/01 01:21:33;;;;;;;;;;;;;;;-0.23;100.00;97766.75;5011548;28;19933;-47
2021/03/01 01:24:00;;;;;;;;;;;;;;;-0.11;100.00;97764.59;5040569;28;20023;-51
2021/03/01 01:26:27;;;;;;;;;;;;;;;-0.11;100.00;97772.38;5018898;28;19948;-47
2021/03/01 01:28:55;;;;;;;;;;;;;;;0.01;100.00;97757.38;5038695;28;20008;-47
2021/03/01 01:31:21;;;;;;;;;;;;;;;-0.03;100.00;97764.38;5013685;28;20450;-46
2021/03/01 01:33:48;;;;;;;;;;;;;;;-0.05;100.00;97761.81;5036578;28;19933;-49
2021/03/01 01:36:15;;;;;;;;;;;;;;;-0.04;100.00;97760.06;5014917;28;19940;-49
2021/03/01 01:38:50;;;;;;;;;;;;;;;-0.30;100.00;97759.13;5040594;28;20547;-46
2021/03/01 01:41:17;;;;;;;;;;;;;;;-0.14;100.00;97759.50;5015727;28;19990;-51
2021/03/01 01:43:44;;;;;;;;;;;;;;;-0.29;100.00;97755.66;5038427;28;20027;-54
2021/03/01 01:46:11;;;;;;;;;;;;;;;-0.62;100.00;97744.56;5015037;28;19960;-48
2021/03/01 01:48:38;;;;;;;;;;;;;;;-0.89;100.00;97751.34;5031213;28;19929;-46
2021/03/01 01:51:05;;;;;;;;;;;;;;;-1.18;100.00;97752.13;5014851;28;22082;-47
2021/03/01 01:53:32;;;;;;;;;;;;;;;-1.34;100.00;97753.41;5035047;28;20269;-49
2021/03/01 01:55:59;;;;;;;;;;;;;;;-1.40;100.00;97749.28;5018854;28;19925;-49
2021/03/01 01:58:26;;;;;;;;;;;;;;;-1.30;100.00;97749.88;5028468;28;19979;-50
2021/03/01 02:00:53;;;;;;;;;;;;;;;-1.28;100.00;97748.94;5030730;28;20390;-48
2021/03/01 02:03:28;;;;;;;;;;;;;;;-1.53;100.00;97747.88;5016411;28;20302;-46
2021/03/01 02:05:55;;;;;;;;;;;;;;;-1.56;100.00;97751.38;5039532;28;20422;-49
2021/03/01 02:08:49;;;;;;;;;;;;;;;-1.59;100.00;97753.19;5019195;28;19924;-50
2021/03/01 02:11:17;;;;;;;;;;;;;;;-1.77;100.00;97744.16;5034456;28;19925;-47
2021/03/01 02:13:45;;;;;;;;;;;;;;;-1.89;100.00;97739.28;5015617;28;19932;-47
2021/03/01 02:16:13;;;;;;;;;;;;;;;-2.03;100.00;97743.06;5037796;28;19964;-47
2021/03/01 02:18:41;;;;;;;;;;;;;;;-2.07;100.00;97740.56;5012411;28;20023;-46
2021/03/01 02:21:08;;;;;;;;;;;;;;;-1.94;100.00;97744.56;5041044;28;20008;-51
2021/03/01 02:23:36;;;;;;;;;;;;;;;-1.69;100.00;97748.28;5016544;28;20018;-50
2021/03/01 02:26:04;;;;;;;;;;;;;;;-1.47;100.00;97746.00;5029539;28;20012;-46
2021/03/01 02:28:32;;;;;;;;;;;;;;;-1.40;100.00;97732.91;5017601;28;20307;-47
2021/03/01 02:31:00;;;;;;;;;;;;;;;-1.34;100.00;97737.91;5032456;28;20299;-46
2021/03/01 02:33:29;;;;;;;;;;;;;;;-1.26;100.00;97744.56;5015089;28;20007;-46
2021/03/01 02:35:58;;;;;;;;;;;;;;;-1.31;100.00;97738.69;5034190;28;20435;-49
2021/03/01 02:38:26;;;;;;;;;;;;;;;-1.25;100.00;97735.91;5014865;28;19935;-52
2021/03/01 02:40:53;;;;;;;;;;;;;;;-1.17;100.00;97740.91;5035160;28;20419;-50
2021/03/01 02:43:20;;;;;;;;;;;;;;;-1.27;100.00;97742.88;5014162;28;20036;-46
2021/03/01 02:45:47;;;;;;;;;;;;;;;-1.23;100.00;97743.66;5034826;28;20752;-46
2021/03/01 02:48:14;;;;;;;;;;;;;;;-1.32;100.00;97744.72;5017498;28;20012;-47
2021/03/01 02:50:41;;;;;;;;;;;;;;;-1.32;100.00;97742.16;5041072;28;19931;-49
2021/03/01 02:53:09;;;;;;;;;;;;;;;-1.41;100.00;97744.13;5025640;28;19931;-47
2021/03/01 02:55:36;;;;;;;;;;;;;;;-1.56;100.00;97740.19;5026103;28;19925;-46
2021/03/01 02:58:07;;;;;;;;;;;;;;;-1.25;100.00;97741.09;5038258;28;19979;-46
2021/03/01 03:00:34;;;;;;;;;;;;;;;-1.07;100.00;97741.47;5011040;28;19929;-48
2021/03/01 03:03:01;;;;;;;;;;;;;;;-0.88;100.00;97740.09;5033618;28;20409;-47
2021/03/01 03:05:27;;;;;;;;;;;;;;;-0.63;100.00;97740.25;5013452;28;19952;-51
2021/03/01 03:07:54;;;;;;;;;;;;;;;-0.59;100.00;97738.41;5045409;28;20330;-46
2021/03/01 03:10:21;;;;;;;;;;;;;;;-0.61;100.00;97738.47;5023094;28;19931;-48
2021/03/01 03:12:48;;;;;;;;;;;;;;;-0.60;100.00;97734.97;5039314;28;20331;-49
2021/03/01 03:15:18;;;;;;;;;;;;;;;-0.70;100.00;97735.28;5015786;28;20028;-46
2021/03/01 03:17:45;;;;;;;;;;;;;;;-0.73;100.00;97734.47;5028147;28;19948;-46
2021/03/01 03:20:12;;;;;;;;;;;;;;;-0.86;100.00;97727.97;4998507;28;19929;-46
2021/03/01 03:22:40;;;;;;;;;;;;;;;-0.95;100.00;97738.56;5018077;28;19929;-47
2021/03/01 03:25:07;;;;;;;;;;;;;;;-0.85;100.00;97742.59;5023569;28;19931;-46
2021/03/01 03:27:34;;;;;;;;;;;;;;;-0.79;100.00;97750.22;5044821;28;20415;-46
2021/03/01 03:30:01;;;;;;;;;;;;;;;-0.79;100.00;97752.81;5018144;28;19995;-48
2021/03/01 03:32:29;;;;;;;;;;;;;;;-0.81;100.00;97753.72;5031598;28;20007;-49
2021/03/01 03:34:55;;;;;;;;;;;;;;;-0.87;100.00;97746.97;5018766;28;19982;-50
2021/03/01 03:37:24;;;;;;;;;;;;;;;-0.75;100.00;97750.97;5041171;28;19937;-46
2021/03/01 03:39:50;;;;;;;;;;;;;;;-0.74;100.00;97756.09;5041175;28;20325;-46
2021/03/01 03:42:18;;;;;;;;;;;;;;;-0.79;100.00;97755.38;5015323;28;20378;-46
2021/03/01 03:44:45;;;;;;;;;;;;;;;-0.80;100.00;97758.84;5038477;28;19932;-46
2021/03/01 03:47:12;;;;;;;;;;;;;;;-0.82;100.00;97759.81;5016640;28;19925;-46
2021/03/01 03:49:40;;;;;;;;;;;;;;;-0.80;100.00;97758.84;5043377;28;19932;-46
2021/03/01 03:52:07;;;;;;;;;;;;;;;-0.78;100.00;97762.25;5025775;28;19972;-46
2021/03/01 03:54:35;;;;;;;;;;;;;;;-0.68;100.00;97764.59;5040264;28;19939;-46
2021/03/01 03:57:03;;;;;;;;;;;;;;;-0.75;100.00;97757.00;5017519;28;19925;-46
2021/03/01 03:59:32;;;;;;;;;;;;;;;-0.68;100.00;97759.41;5035950;28;20404;-47
2021/03/01 04:01:59;;;;;;;;;;;;;;;-0.61;100.00;97756.59;5010502;28;20403;-47
2021/03/01 04:04:27;;;;;;;;;;;;;;;-0.52;100.00;97752.88;5046996;28;19979;-51
2021/03/01 04:06:55;;;;;;;;;;;;;;;-0.66;100.00;97755.03;5018884;28;20050;-48
2021/03/01 04:09:22;;;;;;;;;;;;;;;-0.87;100.00;97749.56;5039912;28;19924;-51
2021/03/01 04:11:49;;;;;;;;;;;;;;;-0.96;100.00;97757.59;5019606;28;20447;-51
2021/03/01 04:14:17;;;;;;;;;;;;;;;-1.05;100.00;97748.31;5038074;28;19964;-50
2021/03/01 04:16:44;;;;;;;;;;;;;;;-1.25;100.00;97755.78;5018171;28;22874;-55
2021/03/01 04:19:10;;;;;;;;;;;;;;;-1.20;100.00;97747.00;5039881;28;19933;-47
2021/03/01 04:21:37;;;;;;;;;;;;;;;-1.31;100.00;97761.97;5020840;28;19970;-46
2021/03/01 04:24:06;;;;;;;;;;;;;;;-1.46;100.00;97758.03;5029824;28;19940;-48
2021/03/01 04:26:33;;;;;;;;;;;;;;;-1.59;100.00;97753.19;5042543;28;20020;-46
2021/03/01 04:29:00;;;;;;;;;;;;;;;-1.77;100.00;97757.94;5012999;28;19925;-47
2021/03/01 04:31:27;;;;;;;;;;;;;;;-1.87;100.00;97759.03;5032211;28;19925;-46
2021/03/01 04:33:54;;;;;;;;;;;;;;;-1.93;100.00;97757.47;5022218;28;19929;-46
2021/03/01 04:36:21;;;;;;;;;;;;;;;-2.06;100.00;97760.38;5041740;28;19925;-45
2021/03/01 04:38:48;;;;;;;;;;;;;;;-1.83;100.00;97759.81;5021917;28;20015;-46
2021/03/01 04:41:16;;;;;;;;;;;;;;;-1.97;100.00;97755.81;5034381;28;19983;-46
2021/03/01 04:43:43;;;;;;;;;;;;;;;-2.06;100.00;97757.78;4998372;28;20020;-47
2021/03/01 04:46:09;;;;;;;;;;;;;;;-2.17;100.00;97761.47;5016675;28;20040;-46
2021/03/01 04:48:36;;;;;;;;;;;;;;;-2.24;100.00;97766.78;4998949;28;20991;-49
2021/03/01 04:51:03;;;;;;;;;;;;;;;-2.35;100.00;97767.03;5032414;28;19953;-48
2021/03/01 04:53:30;;;;;;;;;;;;;;;-2.33;100.00;97769.59;5016559;28;19953;-49
2021/03/01 04:55:57;;;;;;;;;;;;;;;-2.32;100.00;97771.28;5041008;28;19980;-49
2021/03/01 04:58:24;;;;;;;;;;;;;;;-2.30;100.00;97765.22;5017917;28;19933;-46
2021/03/01 05:00:51;;;;;;;;;;;;;;;-2.31;100.00;97767.81;5029458;28;19935;-47
2021/03/01 05:03:18;;;;;;;;;;;;;;;-2.47;100.00;97762.16;5011490;28;19948;-46
2021/03/01 05:05:45;;;;;;;;;;;;;;;-2.60;100.00;97758.13;5036461;28;19932;-47
2021/03/01 05:08:13;;;;;;;;;;;;;;;-2.58;100.00;97753.75;5040465;28;19931;-47
2021/03/01 05:10:40;;;;;;;;;;;;;;;-2.65;100.00;97761.66;5012824;28;19929;-46
2021/03/01 05:13:07;;;;;;;;;;;;;;;-2.72;100.00;97759.19;5011376;28;19926;-46
2021/03/01 05:15:34;;;;;;;;;;;;;;;-2.53;100.00;97768.28;5016731;28;20002;-46
2021/03/01 05:18:01;;;;;;;;;;;;;;;-2.56;100.00;97757.16;5039054;28;19925;-47
2021/03/01 05:20:28;;;;;;;;;;;;;;;-2.56;100.00;97757.16;5022424;28;19925;-47
2021/03/01 05:22:55;;;;;;;;;;;;;;;-2.56;100.00;97757.16;5034773;28;19999;-51
2021/03/01 05:25:22;;;;;;;;;;;;;;;-2.64;100.00;97749.59;5017529;28;19946;-46
2021/03/01 05:27:49;;;;;;;;;;;;;;;-2.73;100.00;97757.50;5019400;28;19964;-47
2021/03/01 05:30:16;;;;;;;;;;;;;;;-2.61;100.00;97765.03;4994216;28;20423;-49
2021/03/01 05:32:43;;;;;;;;;;;;;;;-2.65;100.00;97755.63;5021175;28;20424;-47
2021/03/01 05:35:11;;;;;;;;;;;;;;;-2.68;100.00;97761.72;5015201;28;20001;-50
2021/03/01 05:37:38;;;;;;;;;;;;;;;-2.69;100.00;97766.88;5045033;28;19963;-49
2021/03/01 05:40:05;;;;;;;;;;;;;;;-2.60;100.00;97764.13;4996719;28;20409;-49
2021/03/01 05:42:32;;;;;;;;;;;;;;;-2.39;100.00;97762.81;5031944;28;20392;-49
2021/03/01 05:44:59;;;;;;;;;;;;;;;-2.29;100.00;97772.06;5010491;28;20051;-49
2021/03/01 05:47:26;;;;;;;;;;;;;;;-2.28;100.00;97772.91;5033336;28;19960;-48
2021/03/01 05:49:54;;;;;;;;;;;;;;;-2.24;100.00;97777.97;5036979;28;19942;-53
2021/03/01 05:52:21;;;;;;;;;;;;;;;-2.07;100.00;97780.19;5011479;28;19944;-49
2021/03/01 05:54:47;;;;;;;;;;;;;;;-2.00;100.00;97778.31;5032674;28;20145;-46
2021/03/01 05:57:14;;;;;;;;;;;;;;;-1.97;100.00;97781.66;5002483;28;19991;-49
2021/03/01 05:59:41;;;;;;;;;;;;;;;-1.96;100.00;97779.97;5016614;28;20427;-52
2021/03/01 06:02:08;;;;;;;;;;;;;;;-2.00;100.00;97784.31;5000301;28;19961;-49
2021/03/01 06:04:35;;;;;;;;;;;;;;;-1.92;100.00;97782.44;5020766;28;19979;-47
2021/03/01 06:07:03;;;;;;;;;;;;;;;-1.73;100.00;97775.06;4998898;28;20042;-48
2021/03/01 06:09:30;;;;;;;;;;;;;;;-1.55;100.00;97789.31;5020088;28;20014;-49
2021/03/01 06:11:57;;;;;;;;;;;;;;;-1.46;100.00;97788.22;5003055;28;19998;-48
2021/03/01 06:14:23;;;;;;;;;;;;;;;-1.27;100.00;97786.03;5036540;28;19988;-51
2021/03/01 06:17:05;;;;;;;;;;;;;;;-1.13;100.00;97783.94;5011426;28;20015;-53
2021/03/01 06:19:42;;;;;;;;;;;;;;;-1.11;100.00;97789.06;5039244;28;19956;-52
2021/03/01 06:22:09;;;;;;;;;;;;;;;-1.05;100.00;97784.56;5017016;28;19984;-48
2021/03/01 06:24:36;;;;;;;;;;;;;;;-1.03;100.00;97785.41;5040002;28;19954;-47
2021/03/01 06:27:03;;;;;;;;;;;;;;;-0.80;100.00;97784.75;5013387;28;19962;-47
2021/03/01 06:29:31;;;;;;;;;;;;;;;-0.65;100.00;97785.25;5032964;28;20300;-50
2021/03/01 06:31:57;;;;;;;;;;;;;;;-0.41;100.00;97784.53;5001471;28;19935;-49
2021/03/01 06:34:25;;;;;;;;;;;;;;;-0.42;100.00;97782.81;5020968;28;20028;-46
2021/03/01 06:36:53;;;;;;;;;;;;;;;-0.41;100.00;97784.53;5021396;28;19925;-50
2021/03/01 06:39:24;;;;;;;;;;;;;;;-0.27;100.00;97789.31;5039614;28;20390;-47
2021/03/01 06:41:52;;;;;;;;;;;;;;;-0.13;100.00;97788.91;5034991;28;19947;-53
2021/03/01 06:44:18;;;;;;;;;;;;;;;0.04;100.00;97788.38;5025309;28;19932;-51
2021/03/01 06:46:52;;;;;;;;;;;;;;;0.09;100.00;97782.16;5041821;28;19929;-50
2021/03/01 06:49:20;;;;;;;;;;;;;;;0.26;100.00;97780.78;5019002;28;19954;-52
2021/03/01 06:51:47;;;;;;;;;;;;;;;0.17;100.00;97789.69;5019467;28;20394;-46
2021/03/01 06:54:21;;;;;;;;;;;;;;;0.33;100.00;97790.06;4997636;28;20422;-50
2021/03/01 06:56:48;;;;;;;;;;;;;;;0.47;100.00;97786.09;5034832;28;20463;-49
2021/03/01 06:59:15;;;;;;;;;;;;;;;0.53;100.00;97787.66;5015753;28;19975;-50
2021/03/01 07:01:46;;;;;;;;;;;;;;;0.65;100.00;97789.00;5020844;28;20398;-46
2021/03/01 07:04:18;;;;;;;;;;;;;;;0.74;100.00;97790.44;5001301;28;19954;-47
2021/03/01 07:07:52;;;;;;;;;;;;;;;0.92;100.00;97787.22;5052530;27;19924;-48
2021/03/01 07:10:19;;;;;;;;;;;;;;;1.02;100.00;97786.00;5014783;28;19929;-46
2021/03/01 07:12:48;;;;;;;;;;;;;;;1.04;100.00;97781.63;5055398;28;20395;-50
2021/03/01 07:15:15;;;;;;;;;;;;;;;1.17;100.00;97788.09;5033304;28;19936;-49
2021/03/01 07:17:42;;;;;;;;;;;;;;;1.42;100.00;97787.19;5058743;28;19933;-47
2021/03/01 07:20:11;;;;;;;;;;;;;;;1.50;100.00;97787.75;5037573;28;19928;-50
2021/03/01 07:22:39;;;;;;;;;;;;;;;1.64;100.00;97779.44;5064859;28;19925;-46
2021/03/01 07:25:07;;;;;;;;;;;;;;;1.76;100.00;97785.97;5040091;28;19925;-52
2021/03/01 07:27:37;;;;;;;;;;;;;;;1.87;100.00;97791.59;5043316;28;20368;-51
2021/03/01 07:30:05;;;;;;;;;;;;;;;2.06;100.00;97796.94;5029120;28;19933;-47
2021/03/01 07:32:31;;;;;;;;;;;;;;;2.01;100.00;97791.91;5055305;28;19924;-49
2021/03/01 07:34:58;;;;;;;;;;;;;;;2.28;100.00;97802.16;5041186;28;19925;-50
2021/03/01 07:37:25;;;;;;;;;;;;;;;2.40;100.00;97798.22;5058876;28;20381;-47
2021/03/01 07:39:51;;;;;;;;;;;;;;;2.41;100.00;97797.28;5040402;28;19990;-44
2021/03/01 07:42:19;;;;;;;;;;;;;;;2.57;100.00;97791.41;5060498;27;20304;-52
2021/03/01 07:44:46;;;;;;;;;;;;;;;2.72;100.00;97792.56;5037340;27;20327;-47
2021/03/01 07:47:13;;;;;;;;;;;;;;;2.79;100.00;97793.16;5063334;28;20055;-48
2021/03/01 07:49:41;;;;;;;;;;;;;;;2.75;100.00;97792.44;5045858;28;20413;-45
2021/03/01 07:52:08;;;;;;;;;;;;;;;2.72;100.00;97800.38;5065938;28;20333;-48
2021/03/01 07:54:53;;;;;;;;;;;;;;;3.01;100.00;97801.75;5043748;28;20408;-50
2021/03/01 07:57:20;;;;;;;;;;;;;;;3.09;100.00;97791.00;5028481;28;19933;-50
2021/03/01 07:59:47;;;;;;;;;;;;;;;3.10;100.00;97800.53;5038947;28;19996;-45
2021/03/01 08:02:32;;;;;;;;;;;;;;;2.97;100.00;97797.59;5011727;28;19953;-46
2021/03/01 08:04:59;;;;;;;;;;;;;;;3.13;100.00;97802.13;5033068;28;19946;-51
2021/03/01 08:07:36;;;;;;;;;;;;;;;3.19;100.00;97796.66;5020329;28;20056;-52
2021/03/01 08:10:03;;;;;;;;;;;;;;;3.17;100.00;97794.13;5031877;28;19955;-48
2021/03/01 08:12:49;;;;;;;;;;;;;;;3.45;100.00;97800.75;5040403;28;20476;-48
2021/03/01 08:15:20;;;;;;;;;;;;;;;3.57;100.00;97797.59;5041709;28;20003;-45
2021/03/01 08:18:06;;;;;;;;;;;;;;;3.67;100.00;97805.84;5026788;28;20063;-45
2021/03/01 08:20:37;;;;;;;;;;;;;;;3.63;100.00;97802.53;5024211;28;19964;-45
2021/03/01 08:23:17;;;;;;;;;;;;;;;3.74;100.00;97796.84;5000323;28;19971;-48
2021/03/01 08:25:51;;;;;;;;;;;;;;;3.70;100.00;97801.34;5025732;28;20445;-48
2021/03/01 08:28:37;;;;;;;;;;;;;;;3.60;100.00;97804.44;5020909;28;20501;-48
2021/03/01 08:31:18;;;;;;;;;;;;;;;3.71;100.00;97803.03;5037513;28;19972;-45
2021/03/01 08:33:45;;;;;;;;;;;;;;;3.79;100.00;97802.69;5047340;28;19957;-46
2021/03/01 08:36:25;;;;;;;;;;;;;;;4.04;100.00;97799.81;5043155;28;20054;-45
2021/03/01 08:38:54;;;;;;;;;;;;;;;4.14;100.00;97795.00;5044101;28;19958;-47
2021/03/01 08:41:40;;;;;;;;;;;;;;;4.09;100.00;97799.59;5047355;28;19962;-45
2021/03/01 08:44:15;;;;;;;;;;;;;;;4.21;100.00;97793.81;5040547;28;20032;-51
2021/03/01 08:46:43;;;;;;;;;;;;;;;4.32;100.00;97799.34;5047986;28;19985;-46
2021/03/01 08:49:10;;;;;;;;;;;;;;;4.56;100.00;97794.72;5019686;28;19972;-50
2021/03/01 08:51:53;;;;;;;;;;;;;;;4.64;100.00;97789.94;5049734;28;19972;-48
2021/03/01 08:54:29;;;;;;;;;;;;;;;5.07;100.00;97789.59;5019512;28;19988;-47
2021/03/01 08:57:03;;;;;;;;;;;;;;;4.95;100.00;97786.66;5048073;28;20029;-48
2021/03/01 08:59:30;;;;;;;;;;;;;;;5.02;100.00;97783.75;5017638;28;20441;-52
2021/03/01 09:01:57;;;;;;;;;;;;;;;5.31;100.00;97787.50;5023371;28;20276;-50
2021/03/01 09:04:24;;;;;;;;;;;;;;;5.40;100.00;97787.88;5028434;28;20824;-50
2021/03/01 09:06:51;;;;;;;;;;;;;;;5.39;100.00;97782.69;5045387;28;20022;-45
2021/03/01 09:09:18;;;;;;;;;;;;;;;5.38;100.00;97787.09;5019831;28;20417;-48
2021/03/01 09:11:45;;;;;;;;;;;;;;;5.55;100.00;97788.84;5033836;28;19958;-46
2021/03/01 09:14:11;;;;;;;;;;;;;;;5.64;100.00;97784.88;4998186;28;19975;-46
2021/03/01 09:16:40;;;;;;;;;;;;;;;5.92;100.00;97774.66;5027597;28;19959;-45
2021/03/01 09:19:09;;;;;;;;;;;;;;;5.98;100.00;97778.69;4997096;28;19969;-45
2021/03/01 09:21:39;;;;;;;;;;;;;;;6.31;100.00;97773.38;5024005;28;19991;-46
2021/03/01 09:24:06;;;;;;;;;;;;;;;6.01;100.00;97768.06;5001461;28;20412;-45
2021/03/01 09:26:33;;;;;;;;;;;;;;;6.41;100.00;97773.72;5020080;28;20422;-49
2021/03/01 09:29:00;;;;;;;;;;;;;;;6.60;100.00;97768.25;5022281;28;19925;-47
2021/03/01 09:31:29;;;;;;;;;;;;;;;6.77;99.08;97772.53;5041169;28;19924;-49
2021/03/01 09:33:56;;;;;;;;;;;;;;;7.04;96.59;97768.31;5007746;28;20378;-45
2021/03/01 09:36:28;;;;;;;;;;;;;;;6.65;95.17;97768.84;5020619;28;19995;-50
2021/03/01 09:38:54;;;;;;;;;;;;;;;6.63;91.37;97760.22;5003116;28;19979;-49
2021/03/01 09:41:21;;;;;;;;;;;;;;;7.00;90.69;97768.59;5018334;28;19998;-45
2021/03/01 09:43:48;;;;;;;;;;;;;;;6.80;88.78;97775.81;5046928;28;19932;-48
2021/03/01 09:46:15;;;;;;;;;;;;;;;6.90;88.82;97765.66;5022547;28;19958;-45
2021/03/01 09:48:43;;;;;;;;;;;;;;;7.05;87.01;97764.72;5046403;28;19924;-48
2021/03/01 09:51:09;;;;;;;;;;;;;;;7.09;86.75;97754.94;5016029;28;19925;-48
2021/03/01 09:53:37;;;;;;;;;;;;;;;6.72;85.84;97756.25;5029976;28;19957;-49
2021/03/01 09:56:05;;;;;;;;;;;;;;;6.68;85.18;97776.53;5017096;28;20092;-52
2021/03/01 09:58:32;;;;;;;;;;;;;;;6.97;84.97;97766.13;5040361;28;19949;-50
2021/03/01 10:01:06;;;;;;;;;;;;;;;7.19;83.36;97765.69;5012838;28;19951;-47
2021/03/01 10:03:40;;;;;;;;;;;;;;;7.03;82.49;97764.00;5042092;28;20004;-51
2021/03/01 10:06:07;;;;;;;;;;;;;;;7.05;81.26;97756.03;5018610;28;20082;-48
2021/03/01 10:08:34;;;;;;;;;;;;;;;7.46;81.42;97771.06;5045909;28;20331;-46
2021/03/01 10:11:03;;;;;;;;;;;;;;;7.34;77.52;97760.38;5023861;28;19933;-48
2021/03/01 10:13:32;;;;;;;;;;;;;;;7.34;77.55;97751.69;5044692;28;19925;-49
2021/03/01 10:15:59;;;;;;;;;;;;;;;7.61;77.87;97752.63;5001917;28;19929;-51
2021/03/01 10:18:26;;;;;;;;;;;;;;;7.68;75.25;97750.47;5012777;28;20021;-46
2021/03/01 10:20:54;;;;;;;;;;;;;;;8.15;74.61;97732.63;5010457;28;19943;-47
2021/03/01 10:23:31;;;;;;;;;;;;;;;7.70;72.48;97743.31;5038931;28;19925;-49
2021/03/01 10:26:06;;;;;;;;;;;;;;;7.76;70.58;97748.19;5020251;28;22595;-49
2021/03/01 10:28:34;;;;;;;;;;;;;;;8.02;71.38;97743.09;5024725;28;19936;-46
2021/03/01 10:31:01;;;;;;;;;;;;;;;8.31;69.99;97741.22;4990362;28;19926;-47
2021/03/01 10:33:28;;;;;;;;;;;;;;;7.90;67.71;97757.00;5019368;28;20648;-51
2021/03/01 10:36:08;;;;;;;;;;;;;;;8.06;67.97;97745.44;5016537;28;20344;-48
2021/03/01 10:38:50;;;;;;;;;;;;;;;8.26;66.58;97741.53;5024583;28;19925;-50
2021/03/01 10:41:21;;;;;;;;;;;;;;;8.27;66.31;97739.75;5026524;28;19932;-54
2021/03/01 10:43:51;;;;;;;;;;;;;;;8.35;65.51;97739.25;5055357;28;20009;-49
2021/03/01 10:46:28;;;;;;;;;;;;;;;8.47;63.92;97744.59;5021792;28;20020;-48
2021/03/01 10:48:55;;;;;;;;;;;;;;;8.75;64.00;97738.34;5032741;28;19925;-50
2021/03/01 10:51:22;;;;;;;;;;;;;;;8.65;63.37;97726.75;5043987;28;20407;-50
2021/03/01 10:53:48;;;;;;;;;;;;;;;8.64;66.04;97734.75;5016101;28;20117;-45
2021/03/01 10:56:15;;;;;;;;;;;;;;;8.66;67.21;97733.69;5046600;28;20023;-49
2021/03/01 10:58:43;;;;;;;;;;;;;;;8.75;68.68;97727.00;5014782;28;20454;-47
2021/03/01 11:01:09;;;;;;;;;;;;;;;8.80;69.98;97725.72;5041908;28;19979;-53
2021/03/01 11:03:36;;;;;;;;;;;;;;;9.01;74.06;97722.59;5019883;28;19929;-51
2021/03/01 11:06:04;;;;;;;;;;;;;;;9.08;70.31;97725.66;5045153;28;19932;-50
2021/03/01 11:08:31;;;;;;;;;;;;;;;9.31;70.23;97721.47;5026098;28;20430;-49
2021/03/01 11:10:57;;;;;;;;;;;;;;;9.24;73.70;97726.31;5044864;28;20011;-46
2021/03/01 11:13:24;;;;;;;;;;;;;;;9.59;74.81;97712.50;5017930;28;20024;-51
2021/03/01 11:15:52;;;;;;;;;;;;;;;9.44;72.24;97717.88;5039273;28;19929;-48
2021/03/01 11:18:19;;;;;;;;;;;;;;;9.84;75.05;97714.22;5014126;28;19931;-47
2021/03/01 11:20:46;;;;;;;;;;;;;;;9.75;71.93;97716.56;5042845;28;19968;-46
2021/03/01 11:23:13;;;;;;;;;;;;;;;9.49;73.38;97714.91;5017833;28;19969;-49
2021/03/01 11:25:39;;;;;;;;;;;;;;;9.36;74.39;97711.44;5024700;28;20323;-48
2021/03/01 11:28:09;;;;;;;;;;;;;;;9.65;73.02;97710.25;5005329;28;19932;-51
2021/03/01 11:30:36;;;;;;;;;;;;;;;9.57;76.36;97712.59;5019796;28;20386;-46
2021/03/01 11:33:22;;;;;;;;;;;;;;;9.73;75.52;97696.53;5018598;28;19924;-53
2021/03/01 11:35:51;;;;;;;;;;;;;;;9.80;76.84;97697.78;5030099;28;20495;-50
2021/03/01 11:38:27;;;;;;;;;;;;;;;9.64;72.35;97695.44;5020398;28;19925;-53
2021/03/01 11:40:53;;;;;;;;;;;;;;;9.84;73.18;97688.75;5011324;28;20002;-49
2021/03/01 11:43:20;;;;;;;;;;;;;;;10.08;70.35;97699.31;5025396;28;19929;-52
2021/03/01 11:45:47;;;;;;;;;;;;;;;10.11;73.01;97687.69;4996228;28;19961;-48
2021/03/01 11:48:16;;;;;;;;;;;;;;;10.23;70.05;97684.16;5033139;28;19928;-46
2021/03/01 11:50:44;;;;;;;;;;;;;;;9.95;69.78;97678.25;5019507;28;19936;-48
2021/03/01 11:53:29;;;;;;;;;;;;;;;9.91;68.70;97662.75;5042181;28;19925;-48
2021/03/01 11:55:55;;;;;;;;;;;;;;;10.13;69.04;97664.72;5023517;28;19925;-52
2021/03/01 11:58:22;;;;;;;;;;;;;;;10.19;70.85;97657.19;5046512;28;19929;-46
2021/03/01 12:00:49;;;;;;;;;;;;;;;10.45;72.27;97646.53;5020544;28;19940;-54
2021/03/01 12:03:21;;;;;;;;;;;;;;;10.48;71.35;97638.38;5044232;28;19996;-53
2021/03/01 12:09:24;;;;;;;15.98;7.10;;;;;;;18.88;100.00;97612.34;5061736;27;20434;-47
2021/03/01 12:17:42;;;;;;;17.05;7.20;;;;;;;25.94;61.98;97589.91;5017462;27;20387;-51
2021/03/01 12:20:10;;;;;;;12.15;7.45;;;;;;;23.89;56.74;97597.75;5023070;28;20098;-45
2021/03/01 12:22:37;;;;;;;11.77;6.97;;;;;;;22.97;60.74;97596.13;5029501;28;20058;-50
2021/03/01 12:25:05;;;;;;;10.15;6.95;;;;;;;22.55;63.77;97596.16;5042875;28;20045;-45
2021/03/01 12:27:32;;;;;;;10.63;7.13;;;;;;;22.34;64.07;97586.25;5002378;28;20042;-42
2021/03/01 12:29:59;;;;;;;12.35;8.40;;;;;;;22.19;63.89;97584.41;5014956;28;20053;-52
2021/03/01 12:32:26;;;;;;;9.40;6.80;;;;;;;22.07;64.32;97582.41;4995503;28;20042;-46
2021/03/01 12:34:56;;;;;;;10.05;7.22;;;;;;;21.91;65.05;97584.28;5021070;28;20046;-46
2021/03/01 13:05:43;;;;;;;8.98;7.38;;;;;;;18.82;30.53;97506.09;5025320;27;21065;-60
2021/03/01 13:10:30;;;;;;;9.65;7.30;;;;;;;15.36;38.42;97518.88;5077615;27;20411;-59
2021/03/01 13:12:57;;;;;;;10.25;7.25;;;;;;;14.26;40.48;97502.75;5093182;27;20040;-61
2021/03/01 13:15:24;;;;;;;9.85;6.07;;;;;;;13.53;42.82;97511.13;5073531;28;20051;-60
2021/03/01 13:17:50;;;;;;;9.65;6.78;;;;;;;13.47;46.16;97519.63;5094166;28;20135;-61
2021/03/01 13:20:17;;;;;;;10.60;6.57;;;;;;;12.96;48.44;97512.59;5073550;27;20054;-60
2021/03/01 13:22:44;;;;;;;8.57;6.10;;;;;;;12.71;50.07;97511.25;5092534;28;20101;-60
2021/03/01 13:25:11;;;;;;;9.73;5.90;;;;;;;12.45;46.70;97510.81;5075775;28;20064;-60